Pagina principală
METAR-TAF:

METAR-TAF

Aeroporturi :

Funafuti, Tuvalu

Latitudine: 08-31S, longitudine: 179-13E, elevație: 1 m

Observații meteo curente

Raportul a fost făcut în urmă cu 27 de minute, la 16:00 UTC
Vânt 4 kt de la Est
Temperatură 28°C
Umiditate 79%
Presiune 1009 hPa
Vizibilitate de 10 km sau mai mult
Nori puțini la o înălțime de 1800 picior, Cumulus congestus.

METAR: NGFU 251600Z 08004KT 9999 FEW018TCU 28/24 Q1009

Ora: 04:27 (16:27 UTC)

Prognoză

Raportul a fost făcut în urmă cu 5 ore și 21 de minute, la 11:06 UTC
Prognoză valabilă de la 25 ora 12 UTC la 26 ora 12 UTC
Vânt 9 kt de la Est
Vizibilitate de 10 km sau mai mult
Nori împrăștiați la o înălțime de 1800 picior
Probabilitate 30% :
Temporar
de la 26 ora 02 UTC la 26 ora 12 UTC
Vizibilitate: 5000 m
Nori puțini la o înălțime de 1800 picior, Cumulonimbus.
oraj, ploaie

TAF: NGFU 251106Z 2512/2612 08009KT 9999 SCT018 PROB30 TEMPO 2602/2612 5000 TSRA FEW018CB

Observații și prognoze meteo pentru peste 4.000 de aeroporturi (rapoarte METAR și TAF).

Stațiile disponibile sunt reprezentate pe hartă prin puncte galbene și roșii.

Țineți indicatorul mouse-ului pe punctul dorit pentru a vedea denumirea stației.

Apoi, faceți clic pentru a vedea observațiile și prognozele meteorologice.

Pentru a schimba harta: Pentru mărire, faceți clic pe butoanele verzi cu cruce neagră; pentru micșorare, pe butonul verde cu o liniuță; pentru hărți învecinate, pe săgețile verzi.


METAR-TAF: